sensor_id;sensor_type;location;lat;lon;timestamp;P1;durP1;ratioP1;P2;durP2;ratioP2
11893;SDS011;6006;49.696;8.662;2023-08-21T00:01:32;4.90;;;4.50;;
11893;SDS011;6006;49.696;8.662;2023-08-21T00:03:59;4.35;;;3.90;;
11893;SDS011;6006;49.696;8.662;2023-08-21T00:06:26;4.78;;;4.35;;
11893;SDS011;6006;49.696;8.662;2023-08-21T00:08:53;5.15;;;4.65;;
11893;SDS011;6006;49.696;8.662;2023-08-21T00:11:20;6.47;;;4.40;;
11893;SDS011;6006;49.696;8.662;2023-08-21T00:13:47;5.00;;;4.43;;
11893;SDS011;6006;49.696;8.662;2023-08-21T00:16:16;7.10;;;4.78;;
11893;SDS011;6006;49.696;8.662;2023-08-21T00:18:43;8.13;;;4.82;;
11893;SDS011;6006;49.696;8.662;2023-08-21T00:21:10;5.78;;;4.93;;
11893;SDS011;6006;49.696;8.662;2023-08-21T00:23:37;6.50;;;4.50;;
11893;SDS011;6006;49.696;8.662;2023-08-21T00:26:04;6.15;;;4.93;;
11893;SDS011;6006;49.696;8.662;2023-08-21T00:28:31;7.15;;;5.18;;
11893;SDS011;6006;49.696;8.662;2023-08-21T00:31:00;5.53;;;4.85;;
11893;SDS011;6006;49.696;8.662;2023-08-21T00:33:28;6.00;;;5.07;;
11893;SDS011;6006;49.696;8.662;2023-08-21T00:35:56;5.95;;;5.35;;
11893;SDS011;6006;49.696;8.662;2023-08-21T00:38:23;7.45;;;5.45;;
11893;SDS011;6006;49.696;8.662;2023-08-21T00:40:51;8.55;;;4.72;;
11893;SDS011;6006;49.696;8.662;2023-08-21T00:43:18;5.50;;;4.82;;
11893;SDS011;6006;49.696;8.662;2023-08-21T00:45:45;6.65;;;4.97;;
11893;SDS011;6006;49.696;8.662;2023-08-21T00:48:13;8.10;;;5.60;;
11893;SDS011;6006;49.696;8.662;2023-08-21T00:50:42;7.60;;;4.57;;
11893;SDS011;6006;49.696;8.662;2023-08-21T00:53:10;6.97;;;5.22;;
11893;SDS011;6006;49.696;8.662;2023-08-21T00:55:37;7.03;;;5.88;;
11893;SDS011;6006;49.696;8.662;2023-08-21T00:58:05;5.05;;;4.55;;
11893;SDS011;6006;49.696;8.662;2023-08-21T01:00:33;8.00;;;5.10;;
11893;SDS011;6006;49.696;8.662;2023-08-21T01:03:01;7.13;;;4.75;;
11893;SDS011;6006;49.696;8.662;2023-08-21T01:05:28;7.57;;;5.57;;
11893;SDS011;6006;49.696;8.662;2023-08-21T01:07:59;5.82;;;4.72;;
11893;SDS011;6006;49.696;8.662;2023-08-21T01:10:34;8.25;;;5.28;;
11893;SDS011;6006;49.696;8.662;2023-08-21T01:13:09;7.82;;;5.00;;
11893;SDS011;6006;49.696;8.662;2023-08-21T01:15:45;6.35;;;5.20;;
11893;SDS011;6006;49.696;8.662;2023-08-21T01:18:12;6.88;;;5.40;;
11893;SDS011;6006;49.696;8.662;2023-08-21T01:20:40;7.15;;;5.10;;
11893;SDS011;6006;49.696;8.662;2023-08-21T01:23:09;6.32;;;5.72;;
11893;SDS011;6006;49.696;8.662;2023-08-21T01:25:37;5.53;;;5.03;;
11893;SDS011;6006;49.696;8.662;2023-08-21T01:28:04;10.07;;;5.70;;
11893;SDS011;6006;49.696;8.662;2023-08-21T01:30:31;5.85;;;4.78;;
11893;SDS011;6006;49.696;8.662;2023-08-21T01:33:00;8.27;;;5.63;;
11893;SDS011;6006;49.696;8.662;2023-08-21T01:35:31;6.28;;;5.30;;
11893;SDS011;6006;49.696;8.662;2023-08-21T01:38:02;9.27;;;5.78;;
11893;SDS011;6006;49.696;8.662;2023-08-21T01:40:29;5.88;;;5.38;;
11893;SDS011;6006;49.696;8.662;2023-08-21T01:42:57;7.72;;;5.38;;
11893;SDS011;6006;49.696;8.662;2023-08-21T01:45:24;5.97;;;5.22;;
11893;SDS011;6006;49.696;8.662;2023-08-21T01:47:51;6.00;;;5.40;;
11893;SDS011;6006;49.696;8.662;2023-08-21T01:50:18;6.10;;;5.10;;
11893;SDS011;6006;49.696;8.662;2023-08-21T01:52:45;5.60;;;5.10;;
11893;SDS011;6006;49.696;8.662;2023-08-21T01:55:12;6.82;;;5.75;;
11893;SDS011;6006;49.696;8.662;2023-08-21T01:57:39;5.93;;;5.13;;
11893;SDS011;6006;49.696;8.662;2023-08-21T02:00:09;5.72;;;5.22;;
11893;SDS011;6006;49.696;8.662;2023-08-21T02:02:38;5.15;;;4.75;;
11893;SDS011;6006;49.696;8.662;2023-08-21T02:05:05;5.18;;;4.68;;
11893;SDS011;6006;49.696;8.662;2023-08-21T02:07:32;6.20;;;5.50;;
11893;SDS011;6006;49.696;8.662;2023-08-21T02:09:59;7.95;;;5.72;;
11893;SDS011;6006;49.696;8.662;2023-08-21T02:12:26;5.53;;;5.03;;
11893;SDS011;6006;49.696;8.662;2023-08-21T02:14:53;6.10;;;5.45;;
11893;SDS011;6006;49.696;8.662;2023-08-21T02:17:22;6.50;;;5.13;;
11893;SDS011;6006;49.696;8.662;2023-08-21T02:19:52;5.82;;;5.30;;
11893;SDS011;6006;49.696;8.662;2023-08-21T02:22:19;6.15;;;5.55;;
11893;SDS011;6006;49.696;8.662;2023-08-21T02:24:45;6.78;;;4.80;;
11893;SDS011;6006;49.696;8.662;2023-08-21T02:27:12;6.00;;;5.22;;
11893;SDS011;6006;49.696;8.662;2023-08-21T02:29:39;5.82;;;5.13;;
11893;SDS011;6006;49.696;8.662;2023-08-21T02:32:06;5.93;;;5.13;;
11893;SDS011;6006;49.696;8.662;2023-08-21T02:34:35;5.93;;;5.18;;
11893;SDS011;6006;49.696;8.662;2023-08-21T02:37:01;5.70;;;4.82;;
11893;SDS011;6006;49.696;8.662;2023-08-21T02:39:30;5.93;;;4.85;;
11893;SDS011;6006;49.696;8.662;2023-08-21T02:41:57;7.82;;;5.38;;
11893;SDS011;6006;49.696;8.662;2023-08-21T02:44:23;5.97;;;5.38;;
11893;SDS011;6006;49.696;8.662;2023-08-21T02:46:50;6.80;;;5.55;;
11893;SDS011;6006;49.696;8.662;2023-08-21T02:49:17;7.53;;;5.45;;
11893;SDS011;6006;49.696;8.662;2023-08-21T02:51:45;6.72;;;5.35;;
11893;SDS011;6006;49.696;8.662;2023-08-21T02:54:13;8.48;;;5.63;;
11893;SDS011;6006;49.696;8.662;2023-08-21T02:56:39;5.70;;;5.20;;
11893;SDS011;6006;49.696;8.662;2023-08-21T02:59:06;6.20;;;5.60;;
11893;SDS011;6006;49.696;8.662;2023-08-21T03:01:33;6.93;;;5.65;;
11893;SDS011;6006;49.696;8.662;2023-08-21T03:04:01;9.50;;;5.57;;
11893;SDS011;6006;49.696;8.662;2023-08-21T03:06:28;6.15;;;5.30;;
11893;SDS011;6006;49.696;8.662;2023-08-21T03:08:56;6.07;;;5.47;;
11893;SDS011;6006;49.696;8.662;2023-08-21T03:11:23;5.25;;;4.63;;
11893;SDS011;6006;49.696;8.662;2023-08-21T03:13:50;6.15;;;5.20;;
11893;SDS011;6006;49.696;8.662;2023-08-21T03:16:17;6.88;;;5.35;;
11893;SDS011;6006;49.696;8.662;2023-08-21T03:21:32;8.75;;;5.43;;
11893;SDS011;6006;49.696;8.662;2023-08-21T03:24:00;6.45;;;5.63;;
11893;SDS011;6006;49.696;8.662;2023-08-21T03:26:27;5.78;;;5.25;;
11893;SDS011;6006;49.696;8.662;2023-08-21T03:28:54;6.70;;;6.10;;
11893;SDS011;6006;49.696;8.662;2023-08-21T03:31:21;6.60;;;5.63;;
11893;SDS011;6006;49.696;8.662;2023-08-21T03:33:48;10.07;;;6.38;;
11893;SDS011;6006;49.696;8.662;2023-08-21T03:36:15;8.23;;;5.90;;
11893;SDS011;6006;49.696;8.662;2023-08-21T03:38:41;10.88;;;6.70;;
11893;SDS011;6006;49.696;8.662;2023-08-21T03:41:10;8.27;;;6.40;;
11893;SDS011;6006;49.696;8.662;2023-08-21T03:43:37;7.75;;;6.22;;
11893;SDS011;6006;49.696;8.662;2023-08-21T03:46:04;8.90;;;6.20;;
11893;SDS011;6006;49.696;8.662;2023-08-21T03:48:31;9.10;;;6.38;;
11893;SDS011;6006;49.696;8.662;2023-08-21T03:50:58;7.22;;;6.40;;
11893;SDS011;6006;49.696;8.662;2023-08-21T03:53:25;7.35;;;6.45;;
11893;SDS011;6006;49.696;8.662;2023-08-21T03:55:52;8.13;;;6.45;;
11893;SDS011;6006;49.696;8.662;2023-08-21T03:58:21;7.95;;;6.72;;
11893;SDS011;6006;49.696;8.662;2023-08-21T04:00:47;7.22;;;5.93;;
11893;SDS011;6006;49.696;8.662;2023-08-21T04:03:14;8.98;;;6.18;;
11893;SDS011;6006;49.696;8.662;2023-08-21T04:05:41;6.20;;;5.60;;
11893;SDS011;6006;49.696;8.662;2023-08-21T04:08:08;6.75;;;6.00;;
11893;SDS011;6006;49.696;8.662;2023-08-21T04:10:35;7.05;;;5.93;;
11893;SDS011;6006;49.696;8.662;2023-08-21T04:13:03;7.72;;;5.97;;
11893;SDS011;6006;49.696;8.662;2023-08-21T04:15:33;6.97;;;6.30;;
11893;SDS011;6006;49.696;8.662;2023-08-21T04:18:01;8.35;;;6.43;;
11893;SDS011;6006;49.696;8.662;2023-08-21T04:20:28;7.25;;;6.55;;
11893;SDS011;6006;49.696;8.662;2023-08-21T04:22:55;8.70;;;6.53;;
11893;SDS011;6006;49.696;8.662;2023-08-21T04:25:23;8.45;;;6.28;;
11893;SDS011;6006;49.696;8.662;2023-08-21T04:27:50;8.85;;;6.35;;
11893;SDS011;6006;49.696;8.662;2023-08-21T04:30:16;7.63;;;6.30;;
11893;SDS011;6006;49.696;8.662;2023-08-21T04:32:45;9.70;;;8.05;;
11893;SDS011;6006;49.696;8.662;2023-08-21T04:35:13;7.40;;;6.28;;
11893;SDS011;6006;49.696;8.662;2023-08-21T04:37:42;8.00;;;6.38;;
11893;SDS011;6006;49.696;8.662;2023-08-21T04:40:10;7.60;;;6.90;;
11893;SDS011;6006;49.696;8.662;2023-08-21T04:42:38;8.80;;;6.85;;
11893;SDS011;6006;49.696;8.662;2023-08-21T04:45:05;7.50;;;6.80;;
11893;SDS011;6006;49.696;8.662;2023-08-21T04:47:33;8.68;;;7.10;;
11893;SDS011;6006;49.696;8.662;2023-08-21T04:50:01;12.20;;;7.43;;
11893;SDS011;6006;49.696;8.662;2023-08-21T04:52:28;9.60;;;7.40;;
11893;SDS011;6006;49.696;8.662;2023-08-21T04:54:55;10.88;;;7.75;;
11893;SDS011;6006;49.696;8.662;2023-08-21T04:57:22;8.77;;;7.40;;
11893;SDS011;6006;49.696;8.662;2023-08-21T04:59:49;10.63;;;7.50;;
11893;SDS011;6006;49.696;8.662;2023-08-21T05:02:16;8.73;;;7.35;;
11893;SDS011;6006;49.696;8.662;2023-08-21T05:04:43;8.20;;;7.07;;
11893;SDS011;6006;49.696;8.662;2023-08-21T05:07:11;7.68;;;6.45;;
11893;SDS011;6006;49.696;8.662;2023-08-21T05:09:38;8.85;;;7.20;;
11893;SDS011;6006;49.696;8.662;2023-08-21T05:12:05;8.77;;;7.18;;
11893;SDS011;6006;49.696;8.662;2023-08-21T05:14:33;9.40;;;7.30;;
11893;SDS011;6006;49.696;8.662;2023-08-21T05:17:00;7.28;;;6.55;;
11893;SDS011;6006;49.696;8.662;2023-08-21T05:19:27;6.93;;;6.32;;
11893;SDS011;6006;49.696;8.662;2023-08-21T05:21:54;11.27;;;7.05;;
11893;SDS011;6006;49.696;8.662;2023-08-21T05:24:22;8.45;;;7.30;;
11893;SDS011;6006;49.696;8.662;2023-08-21T05:26:49;8.32;;;7.40;;
11893;SDS011;6006;49.696;8.662;2023-08-21T05:29:16;9.32;;;8.05;;
11893;SDS011;6006;49.696;8.662;2023-08-21T05:31:43;9.57;;;7.10;;
11893;SDS011;6006;49.696;8.662;2023-08-21T05:34:10;13.07;;;7.03;;
11893;SDS011;6006;49.696;8.662;2023-08-21T05:36:37;9.45;;;6.97;;
11893;SDS011;6006;49.696;8.662;2023-08-21T05:39:04;10.98;;;7.68;;
11893;SDS011;6006;49.696;8.662;2023-08-21T05:41:33;7.90;;;6.93;;
11893;SDS011;6006;49.696;8.662;2023-08-21T05:44:00;8.02;;;6.75;;
11893;SDS011;6006;49.696;8.662;2023-08-21T05:46:27;9.23;;;6.90;;
11893;SDS011;6006;49.696;8.662;2023-08-21T05:48:54;8.80;;;6.60;;
11893;SDS011;6006;49.696;8.662;2023-08-21T05:51:21;10.48;;;7.00;;
11893;SDS011;6006;49.696;8.662;2023-08-21T05:53:48;9.27;;;6.80;;
11893;SDS011;6006;49.696;8.662;2023-08-21T05:56:15;9.70;;;7.68;;
11893;SDS011;6006;49.696;8.662;2023-08-21T05:58:43;8.02;;;6.47;;
11893;SDS011;6006;49.696;8.662;2023-08-21T06:01:10;7.93;;;6.70;;
11893;SDS011;6006;49.696;8.662;2023-08-21T06:03:37;8.65;;;7.15;;
11893;SDS011;6006;49.696;8.662;2023-08-21T06:06:04;8.70;;;6.38;;
11893;SDS011;6006;49.696;8.662;2023-08-21T06:08:31;7.53;;;6.75;;
11893;SDS011;6006;49.696;8.662;2023-08-21T06:10:58;17.63;;;9.45;;
11893;SDS011;6006;49.696;8.662;2023-08-21T06:13:25;25.02;;;10.18;;
11893;SDS011;6006;49.696;8.662;2023-08-21T06:15:53;9.82;;;6.78;;
11893;SDS011;6006;49.696;8.662;2023-08-21T06:18:20;7.82;;;6.90;;
11893;SDS011;6006;49.696;8.662;2023-08-21T06:20:48;6.97;;;5.93;;
11893;SDS011;6006;49.696;8.662;2023-08-21T06:23:18;8.93;;;7.38;;
11893;SDS011;6006;49.696;8.662;2023-08-21T06:25:46;8.05;;;6.90;;
11893;SDS011;6006;49.696;8.662;2023-08-21T06:28:13;7.72;;;5.80;;
11893;SDS011;6006;49.696;8.662;2023-08-21T06:30:40;6.45;;;5.18;;
11893;SDS011;6006;49.696;8.662;2023-08-21T06:33:09;5.93;;;5.32;;
11893;SDS011;6006;49.696;8.662;2023-08-21T06:35:36;5.55;;;5.05;;
11893;SDS011;6006;49.696;8.662;2023-08-21T06:38:03;6.28;;;5.00;;
11893;SDS011;6006;49.696;8.662;2023-08-21T06:40:30;7.80;;;5.28;;
11893;SDS011;6006;49.696;8.662;2023-08-21T06:42:57;6.30;;;5.70;;
11893;SDS011;6006;49.696;8.662;2023-08-21T06:45:24;6.63;;;5.18;;
11893;SDS011;6006;49.696;8.662;2023-08-21T06:47:53;8.75;;;6.20;;
11893;SDS011;6006;49.696;8.662;2023-08-21T06:50:21;6.28;;;5.68;;
11893;SDS011;6006;49.696;8.662;2023-08-21T06:52:48;6.47;;;5.82;;
11893;SDS011;6006;49.696;8.662;2023-08-21T06:55:15;7.40;;;5.70;;
11893;SDS011;6006;49.696;8.662;2023-08-21T06:57:42;6.72;;;6.03;;
11893;SDS011;6006;49.696;8.662;2023-08-21T07:00:10;6.30;;;5.18;;
11893;SDS011;6006;49.696;8.662;2023-08-21T07:02:37;6.55;;;5.95;;
11893;SDS011;6006;49.696;8.662;2023-08-21T07:05:04;6.35;;;5.28;;
11893;SDS011;6006;49.696;8.662;2023-08-21T07:07:34;7.03;;;6.43;;
11893;SDS011;6006;49.696;8.662;2023-08-21T07:10:01;6.97;;;6.20;;
11893;SDS011;6006;49.696;8.662;2023-08-21T07:12:28;7.22;;;6.47;;
11893;SDS011;6006;49.696;8.662;2023-08-21T07:14:55;8.60;;;6.65;;
11893;SDS011;6006;49.696;8.662;2023-08-21T07:17:22;6.50;;;5.63;;
11893;SDS011;6006;49.696;8.662;2023-08-21T07:19:49;5.82;;;5.32;;
11893;SDS011;6006;49.696;8.662;2023-08-21T07:22:18;6.72;;;5.45;;
11893;SDS011;6006;49.696;8.662;2023-08-21T07:24:46;5.93;;;5.43;;
11893;SDS011;6006;49.696;8.662;2023-08-21T07:27:14;5.93;;;5.30;;
11893;SDS011;6006;49.696;8.662;2023-08-21T07:29:41;5.72;;;5.00;;
11893;SDS011;6006;49.696;8.662;2023-08-21T07:32:08;5.53;;;5.03;;
11893;SDS011;6006;49.696;8.662;2023-08-21T07:34:34;6.13;;;5.63;;
11893;SDS011;6006;49.696;8.662;2023-08-21T07:37:01;5.85;;;5.35;;
11893;SDS011;6006;49.696;8.662;2023-08-21T07:39:28;5.97;;;5.47;;
11893;SDS011;6006;49.696;8.662;2023-08-21T07:41:57;7.50;;;6.05;;
11893;SDS011;6006;49.696;8.662;2023-08-21T07:44:24;7.82;;;5.28;;
11893;SDS011;6006;49.696;8.662;2023-08-21T07:46:51;5.68;;;5.18;;
11893;SDS011;6006;49.696;8.662;2023-08-21T07:49:17;7.13;;;6.15;;
11893;SDS011;6006;49.696;8.662;2023-08-21T07:51:44;7.53;;;5.53;;
11893;SDS011;6006;49.696;8.662;2023-08-21T07:54:11;5.85;;;5.35;;
11893;SDS011;6006;49.696;8.662;2023-08-21T07:56:38;6.43;;;5.40;;
11893;SDS011;6006;49.696;8.662;2023-08-21T07:59:07;6.60;;;5.05;;
11893;SDS011;6006;49.696;8.662;2023-08-21T08:01:34;5.88;;;5.38;;
11893;SDS011;6006;49.696;8.662;2023-08-21T08:04:01;6.25;;;5.50;;
11893;SDS011;6006;49.696;8.662;2023-08-21T08:06:28;7.95;;;5.45;;
11893;SDS011;6006;49.696;8.662;2023-08-21T08:08:55;6.28;;;4.78;;
11893;SDS011;6006;49.696;8.662;2023-08-21T08:11:22;6.45;;;5.13;;
11893;SDS011;6006;49.696;8.662;2023-08-21T08:13:49;6.60;;;5.43;;
11893;SDS011;6006;49.696;8.662;2023-08-21T08:16:18;4.95;;;4.55;;
11893;SDS011;6006;49.696;8.662;2023-08-21T08:18:44;7.78;;;5.22;;
11893;SDS011;6006;49.696;8.662;2023-08-21T08:21:11;5.57;;;4.50;;
11893;SDS011;6006;49.696;8.662;2023-08-21T08:23:38;4.85;;;4.40;;
11893;SDS011;6006;49.696;8.662;2023-08-21T08:26:05;5.45;;;4.95;;
11893;SDS011;6006;49.696;8.662;2023-08-21T08:28:33;5.57;;;4.85;;
11893;SDS011;6006;49.696;8.662;2023-08-21T08:31:00;5.60;;;4.90;;
11893;SDS011;6006;49.696;8.662;2023-08-21T08:33:29;6.68;;;5.18;;
11893;SDS011;6006;49.696;8.662;2023-08-21T08:35:56;9.93;;;4.93;;
11893;SDS011;6006;49.696;8.662;2023-08-21T08:38:23;6.18;;;4.85;;
11893;SDS011;6006;49.696;8.662;2023-08-21T08:40:50;5.50;;;5.07;;
11893;SDS011;6006;49.696;8.662;2023-08-21T08:43:20;5.50;;;5.00;;
11893;SDS011;6006;49.696;8.662;2023-08-21T08:45:48;5.57;;;4.95;;
11893;SDS011;6006;49.696;8.662;2023-08-21T08:48:16;5.03;;;4.53;;
11893;SDS011;6006;49.696;8.662;2023-08-21T08:50:47;6.30;;;4.32;;
11893;SDS011;6006;49.696;8.662;2023-08-21T08:53:14;5.60;;;4.93;;
11893;SDS011;6006;49.696;8.662;2023-08-21T08:55:42;5.60;;;4.60;;
11893;SDS011;6006;49.696;8.662;2023-08-21T08:58:09;6.03;;;4.05;;
11893;SDS011;6006;49.696;8.662;2023-08-21T09:00:36;5.07;;;4.57;;
11893;SDS011;6006;49.696;8.662;2023-08-21T09:03:03;6.85;;;4.68;;
11893;SDS011;6006;49.696;8.662;2023-08-21T09:05:30;6.40;;;5.20;;
11893;SDS011;6006;49.696;8.662;2023-08-21T09:08:03;7.10;;;4.88;;
11893;SDS011;6006;49.696;8.662;2023-08-21T09:10:36;5.90;;;5.28;;
11893;SDS011;6006;49.696;8.662;2023-08-21T09:13:08;6.10;;;5.22;;
11893;SDS011;6006;49.696;8.662;2023-08-21T09:15:37;5.60;;;5.10;;
11893;SDS011;6006;49.696;8.662;2023-08-21T09:18:04;6.70;;;5.45;;
11893;SDS011;6006;49.696;8.662;2023-08-21T09:20:34;5.18;;;4.75;;
11893;SDS011;6006;49.696;8.662;2023-08-21T09:23:03;5.45;;;5.05;;
11893;SDS011;6006;49.696;8.662;2023-08-21T09:25:33;7.30;;;5.20;;
11893;SDS011;6006;49.696;8.662;2023-08-21T09:28:03;6.97;;;5.35;;
11893;SDS011;6006;49.696;8.662;2023-08-21T09:30:42;6.80;;;4.88;;
11893;SDS011;6006;49.696;8.662;2023-08-21T09:33:10;6.80;;;5.30;;
11893;SDS011;6006;49.696;8.662;2023-08-21T09:35:37;4.72;;;4.32;;
11893;SDS011;6006;49.696;8.662;2023-08-21T09:38:08;5.35;;;4.95;;
11893;SDS011;6006;49.696;8.662;2023-08-21T09:40:38;5.45;;;4.70;;
11893;SDS011;6006;49.696;8.662;2023-08-21T09:43:07;6.68;;;5.45;;
11893;SDS011;6006;49.696;8.662;2023-08-21T09:45:35;5.40;;;5.00;;
11893;SDS011;6006;49.696;8.662;2023-08-21T09:48:02;7.18;;;5.05;;
11893;SDS011;6006;49.696;8.662;2023-08-21T09:50:30;5.35;;;4.72;;
11893;SDS011;6006;49.696;8.662;2023-08-21T09:52:58;5.43;;;4.85;;
11893;SDS011;6006;49.696;8.662;2023-08-21T09:55:26;4.85;;;4.22;;
11893;SDS011;6006;49.696;8.662;2023-08-21T09:57:55;5.40;;;4.35;;
11893;SDS011;6006;49.696;8.662;2023-08-21T10:00:25;4.65;;;4.25;;
11893;SDS011;6006;49.696;8.662;2023-08-21T10:02:54;4.88;;;4.47;;
11893;SDS011;6006;49.696;8.662;2023-08-21T10:05:27;5.97;;;4.57;;
11893;SDS011;6006;49.696;8.662;2023-08-21T10:07:55;5.95;;;5.40;;
11893;SDS011;6006;49.696;8.662;2023-08-21T10:10:23;5.00;;;4.50;;
11893;SDS011;6006;49.696;8.662;2023-08-21T10:12:51;4.93;;;4.43;;
11893;SDS011;6006;49.696;8.662;2023-08-21T10:15:18;4.75;;;4.38;;
11893;SDS011;6006;49.696;8.662;2023-08-21T10:17:45;4.75;;;4.32;;
11893;SDS011;6006;49.696;8.662;2023-08-21T10:20:12;4.75;;;4.40;;
11893;SDS011;6006;49.696;8.662;2023-08-21T10:22:47;5.63;;;4.63;;
11893;SDS011;6006;49.696;8.662;2023-08-21T10:25:15;4.20;;;3.90;;
11893;SDS011;6006;49.696;8.662;2023-08-21T10:27:45;4.55;;;3.60;;
11893;SDS011;6006;49.696;8.662;2023-08-21T10:30:15;3.78;;;3.50;;
11893;SDS011;6006;49.696;8.662;2023-08-21T10:32:47;7.30;;;4.50;;
11893;SDS011;6006;49.696;8.662;2023-08-21T10:35:14;4.40;;;3.95;;
11893;SDS011;6006;49.696;8.662;2023-08-21T10:40:36;3.70;;;3.40;;
11893;SDS011;6006;49.696;8.662;2023-08-21T10:43:04;3.88;;;3.58;;
11893;SDS011;6006;49.696;8.662;2023-08-21T10:45:55;4.45;;;4.03;;
11893;SDS011;6006;49.696;8.662;2023-08-21T10:48:22;3.97;;;3.50;;
11893;SDS011;6006;49.696;8.662;2023-08-21T10:50:49;4.53;;;3.70;;
11893;SDS011;6006;49.696;8.662;2023-08-21T10:53:17;4.22;;;3.83;;
11893;SDS011;6006;49.696;8.662;2023-08-21T10:55:52;4.00;;;3.50;;
11893;SDS011;6006;49.696;8.662;2023-08-21T10:58:19;3.50;;;3.20;;
11893;SDS011;6006;49.696;8.662;2023-08-21T11:00:46;4.90;;;3.38;;
11893;SDS011;6006;49.696;8.662;2023-08-21T11:03:16;3.58;;;3.28;;
11893;SDS011;6006;49.696;8.662;2023-08-21T11:05:43;3.70;;;3.40;;
11893;SDS011;6006;49.696;8.662;2023-08-21T11:08:09;3.88;;;3.58;;
11893;SDS011;6006;49.696;8.662;2023-08-21T11:10:37;4.35;;;3.63;;
11893;SDS011;6006;49.696;8.662;2023-08-21T11:13:06;3.72;;;3.42;;
11893;SDS011;6006;49.696;8.662;2023-08-21T11:15:33;3.53;;;3.22;;
11893;SDS011;6006;49.696;8.662;2023-08-21T11:18:00;3.80;;;3.50;;
11893;SDS011;6006;49.696;8.662;2023-08-21T11:20:30;4.20;;;3.35;;
11893;SDS011;6006;49.696;8.662;2023-08-21T11:22:58;3.50;;;3.20;;
11893;SDS011;6006;49.696;8.662;2023-08-21T11:25:27;3.20;;;2.90;;
11893;SDS011;6006;49.696;8.662;2023-08-21T11:27:54;3.08;;;2.88;;
11893;SDS011;6006;49.696;8.662;2023-08-21T11:30:21;3.40;;;2.88;;
11893;SDS011;6006;49.696;8.662;2023-08-21T11:32:49;3.90;;;2.70;;
11893;SDS011;6006;49.696;8.662;2023-08-21T11:35:31;2.92;;;2.40;;
11893;SDS011;6006;49.696;8.662;2023-08-21T11:37:58;3.28;;;2.90;;
11893;SDS011;6006;49.696;8.662;2023-08-21T11:40:25;2.92;;;2.72;;
11893;SDS011;6006;49.696;8.662;2023-08-21T11:42:52;3.95;;;2.80;;
11893;SDS011;6006;49.696;8.662;2023-08-21T11:45:25;2.85;;;2.70;;
11893;SDS011;6006;49.696;8.662;2023-08-21T11:47:55;2.58;;;2.38;;
11893;SDS011;6006;49.696;8.662;2023-08-21T11:50:22;3.95;;;2.45;;
11893;SDS011;6006;49.696;8.662;2023-08-21T11:52:51;2.55;;;2.28;;
11893;SDS011;6006;49.696;8.662;2023-08-21T11:55:19;2.15;;;1.98;;
11893;SDS011;6006;49.696;8.662;2023-08-21T11:57:46;2.72;;;2.40;;
11893;SDS011;6006;49.696;8.662;2023-08-21T12:00:14;2.70;;;2.42;;
11893;SDS011;6006;49.696;8.662;2023-08-21T12:02:44;3.33;;;2.60;;
11893;SDS011;6006;49.696;8.662;2023-08-21T12:05:20;3.05;;;2.85;;
11893;SDS011;6006;49.696;8.662;2023-08-21T12:07:47;2.80;;;2.28;;
11893;SDS011;6006;49.696;8.662;2023-08-21T12:10:15;3.65;;;2.22;;
11893;SDS011;6006;49.696;8.662;2023-08-21T12:12:48;2.53;;;2.33;;
11893;SDS011;6006;49.696;8.662;2023-08-21T12:15:15;3.60;;;2.05;;
11893;SDS011;6006;49.696;8.662;2023-08-21T12:17:42;2.45;;;2.25;;
11893;SDS011;6006;49.696;8.662;2023-08-21T12:20:09;2.88;;;1.83;;
11893;SDS011;6006;49.696;8.662;2023-08-21T12:22:37;2.67;;;2.40;;
11893;SDS011;6006;49.696;8.662;2023-08-21T12:25:04;2.28;;;2.00;;
11893;SDS011;6006;49.696;8.662;2023-08-21T12:27:33;2.20;;;1.98;;
11893;SDS011;6006;49.696;8.662;2023-08-21T12:30:00;54.92;;;9.25;;
11893;SDS011;6006;49.696;8.662;2023-08-21T12:32:27;18.70;;;5.60;;
11893;SDS011;6006;49.696;8.662;2023-08-21T12:34:54;1.90;;;1.80;;
11893;SDS011;6006;49.696;8.662;2023-08-21T12:37:21;2.40;;;2.08;;
11893;SDS011;6006;49.696;8.662;2023-08-21T12:39:48;2.53;;;2.10;;
11893;SDS011;6006;49.696;8.662;2023-08-21T12:42:15;3.28;;;2.20;;
11893;SDS011;6006;49.696;8.662;2023-08-21T12:44:43;2.15;;;2.03;;
11893;SDS011;6006;49.696;8.662;2023-08-21T12:47:10;2.30;;;2.17;;
11893;SDS011;6006;49.696;8.662;2023-08-21T12:49:37;2.20;;;2.10;;
11893;SDS011;6006;49.696;8.662;2023-08-21T12:52:04;2.13;;;2.03;;
11893;SDS011;6006;49.696;8.662;2023-08-21T12:54:32;2.30;;;2.10;;
11893;SDS011;6006;49.696;8.662;2023-08-21T12:56:59;2.53;;;2.00;;
11893;SDS011;6006;49.696;8.662;2023-08-21T12:59:26;1.83;;;1.70;;
11893;SDS011;6006;49.696;8.662;2023-08-21T13:01:54;2.00;;;1.77;;
11893;SDS011;6006;49.696;8.662;2023-08-21T13:04:21;3.63;;;1.90;;
11893;SDS011;6006;49.696;8.662;2023-08-21T13:06:48;1.92;;;1.80;;
11893;SDS011;6006;49.696;8.662;2023-08-21T13:09:14;3.38;;;2.03;;
11893;SDS011;6006;49.696;8.662;2023-08-21T13:11:41;1.70;;;1.60;;
11893;SDS011;6006;49.696;8.662;2023-08-21T13:14:08;1.83;;;1.70;;
11893;SDS011;6006;49.696;8.662;2023-08-21T13:16:35;1.70;;;1.60;;
11893;SDS011;6006;49.696;8.662;2023-08-21T13:19:03;2.25;;;1.90;;
11893;SDS011;6006;49.696;8.662;2023-08-21T13:21:30;1.80;;;1.70;;
11893;SDS011;6006;49.696;8.662;2023-08-21T13:23:57;1.95;;;1.55;;
11893;SDS011;6006;49.696;8.662;2023-08-21T13:26:24;1.65;;;1.55;;
11893;SDS011;6006;49.696;8.662;2023-08-21T13:28:54;3.63;;;1.52;;
11893;SDS011;6006;49.696;8.662;2023-08-21T13:31:21;1.63;;;1.52;;
11893;SDS011;6006;49.696;8.662;2023-08-21T13:33:49;1.70;;;1.60;;
11893;SDS011;6006;49.696;8.662;2023-08-21T13:36:20;1.48;;;1.38;;
11893;SDS011;6006;49.696;8.662;2023-08-21T13:38:47;1.98;;;1.40;;
11893;SDS011;6006;49.696;8.662;2023-08-21T13:41:14;3.13;;;1.63;;
11893;SDS011;6006;49.696;8.662;2023-08-21T13:43:41;1.98;;;1.40;;
11893;SDS011;6006;49.696;8.662;2023-08-21T13:46:08;1.80;;;1.70;;
11893;SDS011;6006;49.696;8.662;2023-08-21T13:48:35;1.80;;;1.70;;
11893;SDS011;6006;49.696;8.662;2023-08-21T13:51:02;3.50;;;1.58;;
11893;SDS011;6006;49.696;8.662;2023-08-21T13:53:30;2.10;;;1.70;;
11893;SDS011;6006;49.696;8.662;2023-08-21T13:55:57;1.55;;;1.42;;
11893;SDS011;6006;49.696;8.662;2023-08-21T13:58:24;2.50;;;1.40;;
11893;SDS011;6006;49.696;8.662;2023-08-21T14:00:52;1.55;;;1.45;;
11893;SDS011;6006;49.696;8.662;2023-08-21T14:03:20;3.38;;;1.70;;
11893;SDS011;6006;49.696;8.662;2023-08-21T14:05:47;1.70;;;1.48;;
11893;SDS011;6006;49.696;8.662;2023-08-21T14:08:14;1.70;;;1.60;;
11893;SDS011;6006;49.696;8.662;2023-08-21T14:10:42;2.22;;;1.33;;
11893;SDS011;6006;49.696;8.662;2023-08-21T14:13:09;2.22;;;1.20;;
11893;SDS011;6006;49.696;8.662;2023-08-21T14:15:37;1.67;;;1.58;;
11893;SDS011;6006;49.696;8.662;2023-08-21T14:18:04;3.22;;;1.40;;
11893;SDS011;6006;49.696;8.662;2023-08-21T14:20:31;2.90;;;1.48;;
11893;SDS011;6006;49.696;8.662;2023-08-21T14:22:58;1.38;;;1.27;;
11893;SDS011;6006;49.696;8.662;2023-08-21T14:25:25;1.48;;;1.38;;
11893;SDS011;6006;49.696;8.662;2023-08-21T14:27:53;1.40;;;1.30;;
11893;SDS011;6006;49.696;8.662;2023-08-21T14:30:20;2.35;;;1.30;;
11893;SDS011;6006;49.696;8.662;2023-08-21T14:32:47;1.13;;;1.10;;
11893;SDS011;6006;49.696;8.662;2023-08-21T14:35:14;2.28;;;1.30;;
11893;SDS011;6006;49.696;8.662;2023-08-21T14:37:41;1.27;;;1.20;;
11893;SDS011;6006;49.696;8.662;2023-08-21T14:40:08;1.98;;;1.20;;
11893;SDS011;6006;49.696;8.662;2023-08-21T14:42:36;1.50;;;1.17;;
11893;SDS011;6006;49.696;8.662;2023-08-21T14:45:05;1.85;;;1.30;;
11893;SDS011;6006;49.696;8.662;2023-08-21T14:47:33;1.30;;;1.23;;
11893;SDS011;6006;49.696;8.662;2023-08-21T14:50:01;1.95;;;1.27;;
11893;SDS011;6006;49.696;8.662;2023-08-21T14:52:28;3.22;;;1.20;;
11893;SDS011;6006;49.696;8.662;2023-08-21T14:54:55;1.10;;;1.10;;
11893;SDS011;6006;49.696;8.662;2023-08-21T14:57:23;2.05;;;1.15;;
11893;SDS011;6006;49.696;8.662;2023-08-21T14:59:49;1.40;;;1.30;;
11893;SDS011;6006;49.696;8.662;2023-08-21T15:02:18;4.25;;;1.58;;
11893;SDS011;6006;49.696;8.662;2023-08-21T15:04:45;3.35;;;1.40;;
11893;SDS011;6006;49.696;8.662;2023-08-21T15:07:11;2.53;;;1.20;;
11893;SDS011;6006;49.696;8.662;2023-08-21T15:09:38;1.13;;;1.13;;